Time;durP1;ratioP1;P1;durP2;ratioP2;P2;SDS_P1;SDS_P2;PMS_P1;PMS_P2;Temp;Humidity;BMP_temperature;BMP_pressure;BME280_temperature;BME280_humidity;BME280_pressure;Samples;Min_cycle;Max_cycle;Signal;HPM_P1;HPM_P2
2022/09/11 00:00:33;;;;;;;3.23;2.40;;;;;;;;;;5085202;28;20644;-80
2022/09/11 00:02:59;;;;;;;2.80;2.60;;;;;;;;;;5086698;28;20169;-80
2022/09/11 00:05:26;;;;;;;3.07;2.77;;;;;;;;;;5076756;28;20218;-80
2022/09/11 00:07:52;;;;;;;2.93;2.70;;;;;;;;;;5057434;28;20185;-80
2022/09/11 00:10:18;;;;;;;2.70;2.47;;;;;;;;;;5057405;28;20246;-80
2022/09/11 00:12:44;;;;;;;3.23;2.80;;;;;;;;;;5057521;28;20651;-80
2022/09/11 00:15:10;;;;;;;2.77;2.57;;;;;;;;;;5057491;28;20631;-80
2022/09/11 00:17:36;;;;;;;3.00;2.80;;;;;;;;;;5074270;28;20193;-80
2022/09/11 00:20:03;;;;;;;4.67;2.90;;;;;;;;;;5061633;28;20181;-80
2022/09/11 00:22:29;;;;;;;2.83;2.63;;;;;;;;;;5076173;28;20651;-80
2022/09/11 00:24:56;;;;;;;3.30;3.00;;;;;;;;;;5058569;28;20184;-80
2022/09/11 00:27:23;;;;;;;3.57;2.60;;;;;;;;;;5059108;28;20234;-80
2022/09/11 00:29:49;;;;;;;3.20;2.90;;;;;;;;;;5058912;28;20234;-80
2022/09/11 00:32:15;;;;;;;2.73;2.53;;;;;;;;;;5058973;28;20254;-80
2022/09/11 00:34:41;;;;;;;2.70;2.50;;;;;;;;;;5075517;28;20201;-80
2022/09/11 00:37:08;;;;;;;3.27;2.93;;;;;;;;;;5074434;28;20207;-80
2022/09/11 00:39:34;;;;;;;3.53;3.10;;;;;;;;;;5057642;28;20627;-80
2022/09/11 00:42:00;;;;;;;7.47;3.20;;;;;;;;;;5057436;28;20176;-80
2022/09/11 00:44:27;;;;;;;3.27;2.97;;;;;;;;;;5057576;28;20181;-80
2022/09/11 00:47:05;;;;;;;3.50;3.20;;;;;;;;;;5073808;28;20242;-80
2022/09/11 00:49:35;;;;;;;3.97;3.00;;;;;;;;;;5072807;28;20176;-81
2022/09/11 00:52:11;;;;;;;3.50;3.20;;;;;;;;;;5057114;28;20191;-81
2022/09/11 00:54:40;;;;;;;3.33;3.03;;;;;;;;;;5073165;28;20208;-81
2022/09/11 00:57:07;;;;;;;4.60;2.80;;;;;;;;;;5073084;28;20209;-82
2022/09/11 00:59:34;;;;;;;3.40;3.10;;;;;;;;;;5073082;28;20184;-81
2022/09/11 01:02:00;;;;;;;2.80;2.60;;;;;;;;;;5073249;28;20254;-81
2022/09/11 01:04:28;;;;;;;3.43;3.13;;;;;;;;;;5056937;28;20211;-81
2022/09/11 01:06:55;;;;;;;3.00;2.77;;;;;;;;;;5073180;28;20603;-81
2022/09/11 01:09:21;;;;;;;2.67;2.47;;;;;;;;;;5073420;28;20184;-81
2022/09/11 01:11:58;;;;;;;1.97;1.87;;;;;;;;;;5057123;28;20203;-81
2022/09/11 01:14:34;;;;;;;2.20;2.00;;;;;;;;;;5073307;28;20276;-81
2022/09/11 01:17:09;;;;;;;1.93;1.80;;;;;;;;;;5073697;28;20648;-81
2022/09/11 01:19:53;;;;;;;2.60;2.40;;;;;;;;;;5073415;28;20175;-81
2022/09/11 01:22:31;;;;;;;3.00;2.50;;;;;;;;;;5074147;28;20173;-80
2022/09/11 01:24:57;;;;;;;2.80;2.50;;;;;;;;;;5075018;28;20180;-81
2022/09/11 01:27:41;;;;;;;2.50;2.30;;;;;;;;;;5073700;28;20261;-81
2022/09/11 01:30:10;;;;;;;2.17;1.97;;;;;;;;;;5073877;28;20185;-81
2022/09/11 01:32:35;;;;;;;2.00;1.90;;;;;;;;;;5057579;28;20187;-81
2022/09/11 01:35:20;;;;;;;2.20;2.00;;;;;;;;;;5073633;28;20205;-80
2022/09/11 01:37:49;;;;;;;2.40;2.20;;;;;;;;;;5073472;28;20197;-80
2022/09/11 01:40:39;;;;;;;2.73;2.20;;;;;;;;;;5073686;28;20753;-81
2022/09/11 01:43:11;;;;;;;2.27;2.07;;;;;;;;;;5068417;28;20185;-80
2022/09/11 01:45:39;;;;;;;2.30;2.10;;;;;;;;;;5073979;28;20223;-80
2022/09/11 01:48:07;;;;;;;2.30;2.10;;;;;;;;;;5057472;28;20199;-80
2022/09/11 01:50:36;;;;;;;2.20;2.00;;;;;;;;;;5074169;28;20177;-80
2022/09/11 01:53:04;;;;;;;2.33;2.03;;;;;;;;;;5073983;28;20716;-81
2022/09/11 01:55:40;;;;;;;2.10;1.93;;;;;;;;;;5057257;28;20220;-80
2022/09/11 01:58:10;;;;;;;1.93;1.80;;;;;;;;;;5057961;28;20184;-81
2022/09/11 02:00:38;;;;;;;2.20;2.00;;;;;;;;;;5073965;28;20205;-81
2022/09/11 02:03:10;;;;;;;2.27;2.07;;;;;;;;;;5074649;28;20173;-81
2022/09/11 02:05:46;;;;;;;2.30;2.10;;;;;;;;;;5057599;28;20181;-80
2022/09/11 02:08:39;;;;;;;2.50;2.30;;;;;;;;;;5074808;28;20184;-80
2022/09/11 02:11:07;;;;;;;2.43;2.10;;;;;;;;;;5072832;28;20185;-81
2022/09/11 02:13:37;;;;;;;2.80;2.50;;;;;;;;;;5074940;28;20180;-80
2022/09/11 02:16:15;;;;;;;2.40;2.20;;;;;;;;;;5074857;28;20565;-80
2022/09/11 02:18:45;;;;;;;2.70;2.10;;;;;;;;;;5074484;28;20234;-80
2022/09/11 02:21:11;;;;;;;2.43;2.23;;;;;;;;;;5074872;28;20545;-80
2022/09/11 02:23:37;;;;;;;2.83;2.63;;;;;;;;;;5058498;28;20172;-80
2022/09/11 02:26:04;;;;;;;2.70;2.50;;;;;;;;;;5076900;28;20634;-81
2022/09/11 02:28:30;;;;;;;2.80;2.60;;;;;;;;;;5058654;28;20177;-80
2022/09/11 02:30:56;;;;;;;2.73;2.50;;;;;;;;;;5075809;28;20173;-80
2022/09/11 02:33:30;;;;;;;2.70;2.50;;;;;;;;;;5075659;28;20169;-80
2022/09/11 02:36:01;;;;;;;3.00;2.70;;;;;;;;;;5058979;28;20668;-81
2022/09/11 02:38:32;;;;;;;2.80;2.30;;;;;;;;;;5075760;28;20176;-81
2022/09/11 02:40:58;;;;;;;3.47;2.37;;;;;;;;;;5075673;28;20184;-80
2022/09/11 02:43:24;;;;;;;2.63;2.43;;;;;;;;;;5076005;28;20173;-80
2022/09/11 02:45:56;;;;;;;2.50;2.30;;;;;;;;;;5075489;28;20193;-80
2022/09/11 02:49:01;;;;;;;3.53;2.40;;;;;;;;;;5075932;28;20315;-80
2022/09/11 02:51:27;;;;;;;3.40;2.53;;;;;;;;;;5038264;28;20335;-80
2022/09/11 02:54:05;;;;;;;3.00;2.10;;;;;;;;;;5038790;28;20198;-80
2022/09/11 02:56:39;;;;;;;3.33;2.40;;;;;;;;;;5058631;28;20311;-80
2022/09/11 02:59:09;;;;;;;2.60;2.40;;;;;;;;;;5076369;28;20180;-80
2022/09/11 03:01:48;;;;;;;2.40;2.20;;;;;;;;;;5077715;28;20173;-81
2022/09/11 03:04:14;;;;;;;2.50;2.30;;;;;;;;;;5077645;28;20181;-81
2022/09/11 03:06:41;;;;;;;3.00;2.60;;;;;;;;;;5061486;28;20216;-80
2022/09/11 03:09:08;;;;;;;2.40;2.20;;;;;;;;;;5078292;28;20677;-80
2022/09/11 03:11:34;;;;;;;2.83;2.57;;;;;;;;;;5061784;28;20185;-80
2022/09/11 03:14:00;;;;;;;2.80;2.60;;;;;;;;;;5063519;28;20207;-80
2022/09/11 03:16:26;;;;;;;3.23;2.93;;;;;;;;;;5082361;28;20227;-80
2022/09/11 03:18:52;;;;;;;4.60;2.80;;;;;;;;;;5082863;28;20173;-80
2022/09/11 03:21:19;;;;;;;3.00;2.70;;;;;;;;;;5065959;28;20683;-80
2022/09/11 03:23:45;;;;;;;2.80;2.60;;;;;;;;;;5066380;28;20263;-80
2022/09/11 03:26:10;;;;;;;3.67;2.80;;;;;;;;;;5066824;28;20201;-80
2022/09/11 03:28:38;;;;;;;3.13;2.83;;;;;;;;;;5067316;28;20180;-80
2022/09/11 03:31:05;;;;;;;3.40;3.10;;;;;;;;;;5067170;28;20203;-80
2022/09/11 03:33:31;;;;;;;3.70;3.40;;;;;;;;;;5066463;28;20185;-80
2022/09/11 03:35:57;;;;;;;3.30;3.00;;;;;;;;;;5066959;28;20227;-80
2022/09/11 03:38:23;;;;;;;3.47;3.17;;;;;;;;;;5066977;28;20173;-80
2022/09/11 03:40:49;;;;;;;3.53;3.23;;;;;;;;;;5067481;28;20194;-80
2022/09/11 03:43:15;;;;;;;4.57;3.90;;;;;;;;;;5068269;28;20695;-80
2022/09/11 03:45:43;;;;;;;3.57;3.27;;;;;;;;;;5068583;28;20181;-80
2022/09/11 03:48:09;;;;;;;4.00;3.60;;;;;;;;;;5084681;28;20237;-80
2022/09/11 03:50:35;;;;;;;3.60;3.30;;;;;;;;;;5068499;28;20573;-80
2022/09/11 03:53:01;;;;;;;4.10;3.60;;;;;;;;;;5068787;28;20253;-80
2022/09/11 03:55:27;;;;;;;3.70;3.40;;;;;;;;;;5069239;28;20282;-80
2022/09/11 03:57:53;;;;;;;4.53;3.83;;;;;;;;;;5086010;28;20184;-80
2022/09/11 04:00:19;;;;;;;4.00;3.60;;;;;;;;;;5070336;28;20177;-80
2022/09/11 04:02:45;;;;;;;3.83;3.43;;;;;;;;;;5069737;28;20177;-80
2022/09/11 04:05:11;;;;;;;4.97;3.70;;;;;;;;;;5058334;28;20204;-80
2022/09/11 04:07:37;;;;;;;4.40;3.77;;;;;;;;;;5057621;28;20205;-81
2022/09/11 04:10:03;;;;;;;4.07;3.77;;;;;;;;;;5057516;28;20204;-80
2022/09/11 04:12:29;;;;;;;5.40;3.97;;;;;;;;;;5057638;28;20188;-81
2022/09/11 04:14:55;;;;;;;4.00;3.60;;;;;;;;;;5057137;28;20212;-81
2022/09/11 04:17:23;;;;;;;3.80;3.50;;;;;;;;;;5057629;28;20287;-80
2022/09/11 04:19:49;;;;;;;4.07;3.67;;;;;;;;;;5073738;28;20181;-80
2022/09/11 04:22:15;;;;;;;4.43;4.03;;;;;;;;;;5057395;28;20188;-80
2022/09/11 04:24:41;;;;;;;4.80;3.90;;;;;;;;;;5056419;28;20206;-81
2022/09/11 04:27:07;;;;;;;4.80;4.20;;;;;;;;;;5057142;28;20714;-81
2022/09/11 04:29:33;;;;;;;4.53;3.90;;;;;;;;;;5073925;28;20193;-80
2022/09/11 04:32:00;;;;;;;4.73;4.23;;;;;;;;;;5073983;28;20181;-81
2022/09/11 04:34:26;;;;;;;4.67;4.27;;;;;;;;;;5057202;28;20310;-80
2022/09/11 04:36:54;;;;;;;5.57;4.50;;;;;;;;;;5057186;28;20222;-80
2022/09/11 04:39:20;;;;;;;5.23;3.87;;;;;;;;;;5073814;28;20173;-80
2022/09/11 04:41:47;;;;;;;5.93;4.73;;;;;;;;;;5057637;28;20279;-80
2022/09/11 04:44:13;;;;;;;5.80;5.20;;;;;;;;;;5074064;28;20578;-81
2022/09/11 04:46:40;;;;;;;7.07;5.73;;;;;;;;;;5073809;28;20200;-80
2022/09/11 04:49:07;;;;;;;6.93;6.00;;;;;;;;;;5057489;28;20602;-80
2022/09/11 04:51:35;;;;;;;7.77;5.03;;;;;;;;;;5057582;28;20220;-80
2022/09/11 04:54:01;;;;;;;6.10;5.37;;;;;;;;;;5073357;28;20270;-80
2022/09/11 04:56:28;;;;;;;6.33;5.70;;;;;;;;;;5091702;22;20626;-74
2022/09/11 04:58:56;;;;;;;7.23;6.53;;;;;;;;;;5052410;28;20202;-75
2022/09/11 05:01:22;;;;;;;6.67;5.67;;;;;;;;;;5052302;28;20531;-74
2022/09/11 05:03:48;;;;;;;9.47;6.37;;;;;;;;;;5052133;28;20178;-74
2022/09/11 05:06:15;;;;;;;8.13;6.53;;;;;;;;;;5035733;28;20263;-74
2022/09/11 05:08:41;;;;;;;7.77;6.80;;;;;;;;;;5052374;28;20228;-75
2022/09/11 05:11:10;;;;;;;9.23;7.07;;;;;;;;;;5035637;28;20178;-78
2022/09/11 05:13:36;;;;;;;8.33;7.33;;;;;;;;;;5052151;28;20178;-78
2022/09/11 05:16:03;;;;;;;8.47;7.57;;;;;;;;;;5035576;28;20256;-77
2022/09/11 05:18:29;;;;;;;9.87;8.67;;;;;;;;;;5052081;28;20205;-78
2022/09/11 05:20:59;;;;;;;12.13;9.20;;;;;;;;;;5051823;28;20204;-77
2022/09/11 05:23:26;;;;;;;11.40;9.83;;;;;;;;;;5053200;28;20197;-79
2022/09/11 05:25:56;;;;;;;12.27;10.20;;;;;;;;;;5051722;28;20307;-77
2022/09/11 05:28:22;;;;;;;11.30;9.60;;;;;;;;;;5053064;28;20197;-78
2022/09/11 05:30:48;;;;;;;9.33;8.17;;;;;;;;;;5035090;28;20268;-77
2022/09/11 05:33:14;;;;;;;8.60;7.10;;;;;;;;;;5053193;28;20174;-78
2022/09/11 05:35:40;;;;;;;9.40;8.33;;;;;;;;;;5051368;28;20206;-78
2022/09/11 05:38:09;;;;;;;10.60;8.23;;;;;;;;;;5051339;28;20217;-77
2022/09/11 05:40:35;;;;;;;10.53;9.03;;;;;;;;;;5051585;28;20189;-77
2022/09/11 05:43:01;;;;;;;11.07;9.53;;;;;;;;;;5051632;28;20174;-78
2022/09/11 05:45:27;;;;;;;12.67;10.27;;;;;;;;;;5051569;28;20174;-77
2022/09/11 05:47:53;;;;;;;10.63;9.43;;;;;;;;;;5034875;28;20201;-78
2022/09/11 05:50:20;;;;;;;11.30;10.03;;;;;;;;;;5051807;28;20182;-76
2022/09/11 05:52:46;;;;;;;11.07;9.07;;;;;;;;;;5051481;28;20682;-77
2022/09/11 05:55:12;;;;;;;11.70;9.70;;;;;;;;;;5034994;28;20209;-77
2022/09/11 05:57:38;;;;;;;13.03;10.17;;;;;;;;;;5034964;28;20236;-76
2022/09/11 06:00:05;;;;;;;13.10;10.63;;;;;;;;;;5034584;28;20636;-77
2022/09/11 06:02:31;;;;;;;12.53;10.63;;;;;;;;;;5052481;28;20170;-76
2022/09/11 06:04:57;;;;;;;12.83;10.60;;;;;;;;;;5051211;28;20185;-77
2022/09/11 06:07:23;;;;;;;13.47;11.47;;;;;;;;;;5034603;28;20198;-76
2022/09/11 06:09:49;;;;;;;12.87;11.30;;;;;;;;;;5051150;28;20181;-77
2022/09/11 06:12:16;;;;;;;12.43;11.10;;;;;;;;;;5034726;28;20193;-77
2022/09/11 06:14:43;;;;;;;13.07;11.67;;;;;;;;;;5034613;28;20664;-77
2022/09/11 06:17:09;;;;;;;12.07;10.60;;;;;;;;;;5050994;28;20185;-77
2022/09/11 06:19:35;;;;;;;14.27;11.37;;;;;;;;;;5034324;28;20786;-77
2022/09/11 06:22:01;;;;;;;15.40;11.90;;;;;;;;;;5034447;28;20323;-77
2022/09/11 06:24:27;;;;;;;15.00;12.17;;;;;;;;;;5052108;28;20173;-77
2022/09/11 06:26:53;;;;;;;13.67;11.70;;;;;;;;;;5034408;28;20200;-77
2022/09/11 06:29:19;;;;;;;16.30;13.07;;;;;;;;;;5034258;28;20186;-77
2022/09/11 06:31:46;;;;;;;16.60;12.47;;;;;;;;;;5034362;28;20188;-77
2022/09/11 06:34:12;;;;;;;14.93;12.50;;;;;;;;;;5034593;28;20614;-79
2022/09/11 06:36:38;;;;;;;15.30;13.10;;;;;;;;;;5032330;28;20676;-78
2022/09/11 06:39:05;;;;;;;16.57;12.70;;;;;;;;;;5044095;28;20182;-77
2022/09/11 06:41:31;;;;;;;16.50;13.30;;;;;;;;;;5025735;28;20182;-78
2022/09/11 06:43:57;;;;;;;16.97;13.60;;;;;;;;;;5033921;28;20189;-78
2022/09/11 06:46:24;;;;;;;18.07;13.73;;;;;;;;;;5022310;28;20601;-78
2022/09/11 06:48:56;;;;;;;18.43;14.20;;;;;;;;;;5036765;28;20268;-77
2022/09/11 06:51:23;;;;;;;16.80;12.97;;;;;;;;;;5036382;28;20551;-78
2022/09/11 06:53:52;;;;;;;17.17;13.90;;;;;;;;;;5042425;28;20558;-78
2022/09/11 06:56:18;;;;;;;14.83;13.20;;;;;;;;;;5034448;28;20567;-78
2022/09/11 06:58:45;;;;;;;15.77;12.73;;;;;;;;;;5045107;28;20252;-78
2022/09/11 07:01:12;;;;;;;18.67;14.43;;;;;;;;;;5039810;28;20174;-78
2022/09/11 07:03:43;;;;;;;17.23;13.73;;;;;;;;;;5018436;28;20591;-78
2022/09/11 07:06:09;;;;;;;15.90;12.83;;;;;;;;;;5046053;28;20206;-77
2022/09/11 07:08:35;;;;;;;17.67;13.20;;;;;;;;;;5051922;28;20174;-77
2022/09/11 07:11:05;;;;;;;15.77;13.27;;;;;;;;;;5029772;28;20232;-77
2022/09/11 07:13:33;;;;;;;15.33;12.77;;;;;;;;;;5035856;28;20167;-78
2022/09/11 07:16:03;;;;;;;17.23;13.77;;;;;;;;;;5034652;28;20182;-77
2022/09/11 07:18:47;;;;;;;15.60;13.43;;;;;;;;;;5034634;28;20213;-77
2022/09/11 07:21:15;;;;;;;16.10;13.33;;;;;;;;;;5018345;28;20179;-77
2022/09/11 07:23:42;;;;;;;16.13;13.77;;;;;;;;;;5034352;28;20189;-77
2022/09/11 07:26:11;;;;;;;17.87;12.90;;;;;;;;;;5035500;28;20676;-77
2022/09/11 07:28:37;;;;;;;16.07;12.87;;;;;;;;;;5034453;28;20182;-77
2022/09/11 07:31:09;;;;;;;16.37;12.47;;;;;;;;;;5017860;28;20218;-77
2022/09/11 07:33:36;;;;;;;16.70;13.23;;;;;;;;;;5034538;28;20174;-78
2022/09/11 07:36:13;;;;;;;17.63;13.73;;;;;;;;;;5034498;28;20175;-77
2022/09/11 07:38:49;;;;;;;16.73;13.80;;;;;;;;;;5035694;28;20155;-77
2022/09/11 07:41:15;;;;;;;15.93;13.27;;;;;;;;;;5034927;28;20174;-77
2022/09/11 07:43:44;;;;;;;16.00;12.57;;;;;;;;;;5034701;28;20581;-77
2022/09/11 07:46:10;;;;;;;18.10;13.03;;;;;;;;;;5018112;28;20191;-77
2022/09/11 07:48:37;;;;;;;15.27;12.43;;;;;;;;;;5034298;28;20184;-77
2022/09/11 07:51:04;;;;;;;15.37;12.90;;;;;;;;;;5034479;28;20170;-77
2022/09/11 07:53:34;;;;;;;16.53;12.97;;;;;;;;;;5035433;28;20213;-77
2022/09/11 07:56:07;;;;;;;15.53;12.73;;;;;;;;;;5035268;28;20242;-77
2022/09/11 07:58:37;;;;;;;17.33;13.50;;;;;;;;;;5034018;28;20228;-77
2022/09/11 08:01:04;;;;;;;16.87;13.23;;;;;;;;;;5033642;28;20167;-78
2022/09/11 08:03:30;;;;;;;17.23;13.30;;;;;;;;;;5034024;28;20586;-77
2022/09/11 08:06:00;;;;;;;16.43;12.87;;;;;;;;;;5033947;28;20201;-77
2022/09/11 08:08:28;;;;;;;17.80;14.00;;;;;;;;;;5037690;28;20191;-77
2022/09/11 08:10:55;;;;;;;17.00;13.97;;;;;;;;;;5033909;28;20593;-77
2022/09/11 08:13:21;;;;;;;18.23;14.40;;;;;;;;;;5034100;28;20175;-77
2022/09/11 08:15:47;;;;;;;16.00;13.83;;;;;;;;;;5034769;28;20190;-78
2022/09/11 08:18:14;;;;;;;17.10;12.80;;;;;;;;;;5017486;28;20192;-78
2022/09/11 08:20:40;;;;;;;17.57;13.10;;;;;;;;;;5033585;28;20186;-77
2022/09/11 08:23:06;;;;;;;18.77;14.13;;;;;;;;;;5034397;28;20636;-78
2022/09/11 08:25:35;;;;;;;17.03;13.03;;;;;;;;;;5052765;28;20232;-77
2022/09/11 08:28:01;;;;;;;15.33;13.20;;;;;;;;;;5054776;28;20198;-77
2022/09/11 08:30:27;;;;;;;15.70;13.13;;;;;;;;;;5036934;28;20280;-77
2022/09/11 08:32:53;;;;;;;15.63;13.70;;;;;;;;;;5037241;28;20285;-77
2022/09/11 08:35:19;;;;;;;16.13;12.17;;;;;;;;;;5053309;28;20292;-77
2022/09/11 08:37:45;;;;;;;14.03;11.43;;;;;;;;;;5036878;28;20197;-77
2022/09/11 08:40:11;;;;;;;15.10;12.00;;;;;;;;;;5037050;28;20181;-77
2022/09/11 08:42:40;;;;;;;15.23;12.43;;;;;;;;;;5048592;28;20648;-77
2022/09/11 08:45:10;;;;;;;13.57;11.90;;;;;;;;;;5053491;28;20272;-77
2022/09/11 08:47:37;;;;;;;13.60;12.07;;;;;;;;;;5053102;28;20232;-77
2022/09/11 08:50:20;;;;;;;14.40;11.13;;;;;;;;;;5052985;28;20193;-77
2022/09/11 08:52:47;;;;;;;14.13;11.53;;;;;;;;;;5053396;28;20165;-78
2022/09/11 08:55:14;;;;;;;14.00;12.13;;;;;;;;;;5036745;28;20251;-78
2022/09/11 09:01:07;;;;;;;15.77;12.17;;;;;;;;;;5049161;28;20184;-77
2022/09/11 09:03:43;;;;;;;15.13;11.63;;;;;;;;;;5053213;28;20177;-77
2022/09/11 09:06:23;;;;;;;15.07;12.23;;;;;;;;;;5053120;28;20200;-77
2022/09/11 09:09:01;;;;;;;15.83;11.60;;;;;;;;;;5052556;28;20695;-77
2022/09/11 09:11:36;;;;;;;13.63;11.47;;;;;;;;;;5052004;28;20178;-78
2022/09/11 09:14:23;;;;;;;15.00;12.97;;;;;;;;;;5052594;28;20216;-77
2022/09/11 09:16:55;;;;;;;16.83;12.20;;;;;;;;;;5048301;28;20252;-77
2022/09/11 09:19:25;;;;;;;13.70;12.27;;;;;;;;;;5032411;28;20178;-77
2022/09/11 09:21:54;;;;;;;12.97;11.57;;;;;;;;;;5032490;28;20276;-77
2022/09/11 09:24:20;;;;;;;12.60;10.50;;;;;;;;;;5032774;28;20231;-77
2022/09/11 09:26:51;;;;;;;13.50;10.63;;;;;;;;;;5016183;28;20272;-77
2022/09/11 09:29:22;;;;;;;12.87;10.87;;;;;;;;;;5032465;28;20178;-77
2022/09/11 09:31:50;;;;;;;11.83;9.80;;;;;;;;;;5032733;28;20185;-77
2022/09/11 09:34:18;;;;;;;10.77;9.67;;;;;;;;;;5032257;28;20199;-77
2022/09/11 09:36:54;;;;;;;11.33;10.20;;;;;;;;;;5032261;28;20218;-77
2022/09/11 09:39:22;;;;;;;11.53;10.17;;;;;;;;;;5032411;28;20264;-77
2022/09/11 09:42:10;;;;;;;10.50;9.37;;;;;;;;;;5032258;28;20265;-77
2022/09/11 09:44:45;;;;;;;11.30;10.13;;;;;;;;;;5032493;28;20266;-77
2022/09/11 09:47:12;;;;;;;11.77;9.90;;;;;;;;;;5032086;28;20194;-77
2022/09/11 09:49:39;;;;;;;10.90;9.70;;;;;;;;;;5015759;28;20232;-77
2022/09/11 09:52:25;;;;;;;10.37;9.30;;;;;;;;;;5032100;28;20178;-77
2022/09/11 09:54:53;;;;;;;12.13;10.10;;;;;;;;;;5031804;28;20563;-77
2022/09/11 09:57:56;;;;;;;10.30;9.30;;;;;;;;;;5031656;28;20206;-77
2022/09/11 10:00:22;;;;;;;9.60;8.60;;;;;;;;;;5038858;28;20709;-77
2022/09/11 10:02:53;;;;;;;10.37;9.17;;;;;;;;;;5051683;28;20197;-78
2022/09/11 10:05:36;;;;;;;9.20;8.20;;;;;;;;;;5036058;28;20178;-78
2022/09/11 10:08:05;;;;;;;10.00;8.13;;;;;;;;;;5052340;28;20213;-78
2022/09/11 10:10:36;;;;;;;9.30;8.40;;;;;;;;;;5051823;28;20181;-78
2022/09/11 10:13:07;;;;;;;9.87;8.07;;;;;;;;;;5052192;28;20162;-78
2022/09/11 10:15:38;;;;;;;9.10;8.30;;;;;;;;;;5051884;28;20193;-78
2022/09/11 10:24:17;;;;;;;8.50;7.60;;;;;;;;;;5040764;28;20235;-78
2022/09/11 10:26:49;;;;;;;8.67;7.87;;;;;;;;;;5031632;28;20198;-77
2022/09/11 10:29:23;;;;;;;7.67;6.97;;;;;;;;;;5031547;28;20174;-77
2022/09/11 10:32:09;;;;;;;7.50;6.80;;;;;;;;;;5015862;28;20269;-77
2022/09/11 10:34:36;;;;;;;7.00;6.30;;;;;;;;;;5031140;28;20707;-77
2022/09/11 10:37:06;;;;;;;7.27;6.57;;;;;;;;;;5015475;28;20193;-77
2022/09/11 10:39:34;;;;;;;7.60;6.90;;;;;;;;;;5031802;28;20196;-78
2022/09/11 10:42:05;;;;;;;6.70;6.00;;;;;;;;;;5032360;28;20170;-78
2022/09/11 10:44:32;;;;;;;6.90;5.97;;;;;;;;;;5031508;28;20177;-78
2022/09/11 10:47:03;;;;;;;7.25;6.50;;;;;;;;;;5015197;28;20206;-78
2022/09/11 10:49:29;;;;;;;7.93;7.15;;;;;;;;;;5014901;28;20641;-78
2022/09/11 10:52:15;;;;;;;7.65;6.95;;;;;;;;;;5015263;28;20197;-78
2022/09/11 10:54:45;;;;;;;7.10;6.15;;;;;;;;;;5020833;28;20209;-78
2022/09/11 10:57:27;;;;;;;5.90;5.40;;;;;;;;;;5031878;28;20213;-78
2022/09/11 10:59:54;;;;;;;5.63;5.13;;;;;;;;;;5032110;28;20223;-78
2022/09/11 11:02:30;;;;;;;5.57;5.05;;;;;;;;;;5032291;28;20181;-78
2022/09/11 11:04:57;;;;;;;5.55;4.97;;;;;;;;;;5031531;28;20231;-78
2022/09/11 11:08:02;;;;;;;5.65;4.55;;;;;;;;;;5031716;28;20606;-78
2022/09/11 11:10:43;;;;;;;5.25;4.38;;;;;;;;;;4974477;28;20183;-78
2022/09/11 11:13:29;;;;;;;4.32;3.97;;;;;;;;;;4974917;28;20666;-78
2022/09/11 11:16:04;;;;;;;4.68;4.28;;;;;;;;;;5020499;28;20264;-78
2022/09/11 11:18:50;;;;;;;4.82;4.10;;;;;;;;;;5031793;28;20510;-78
2022/09/11 11:21:36;;;;;;;4.13;3.72;;;;;;;;;;5035991;28;20181;-78
2022/09/11 11:24:14;;;;;;;4.07;3.55;;;;;;;;;;5031269;28;20175;-78
2022/09/11 11:26:52;;;;;;;3.90;3.60;;;;;;;;;;5031279;28;20198;-78
2022/09/11 11:29:30;;;;;;;5.57;4.03;;;;;;;;;;5030927;28;20166;-78
2022/09/11 11:31:56;;;;;;;5.22;4.13;;;;;;;;;;5032191;28;20174;-78
2022/09/11 11:34:33;;;;;;;4.82;4.43;;;;;;;;;;5031707;28;20615;-78
2022/09/11 11:37:02;;;;;;;4.88;4.40;;;;;;;;;;5034609;28;20232;-78
2022/09/11 11:39:31;;;;;;;5.25;4.60;;;;;;;;;;5045991;28;20261;-78
2022/09/11 11:42:04;;;;;;;6.70;4.45;;;;;;;;;;5054738;28;20169;-78
2022/09/11 11:44:53;;;;;;;4.85;4.45;;;;;;;;;;5054770;28;20204;-78
2022/09/11 11:47:24;;;;;;;5.30;4.80;;;;;;;;;;5046317;28;20209;-78
2022/09/11 11:49:50;;;;;;;4.60;4.20;;;;;;;;;;5034960;28;20182;-78
2022/09/11 11:52:22;;;;;;;5.53;4.47;;;;;;;;;;5036501;28;20181;-78
2022/09/11 11:54:53;;;;;;;5.47;4.88;;;;;;;;;;5036129;28;20544;-78
2022/09/11 11:57:21;;;;;;;4.87;4.37;;;;;;;;;;5035837;28;20213;-78
2022/09/11 11:59:55;;;;;;;5.60;5.00;;;;;;;;;;5036042;28;20637;-78
2022/09/11 12:02:29;;;;;;;4.80;4.30;;;;;;;;;;5036526;28;20163;-78
2022/09/11 12:04:55;;;;;;;5.32;4.82;;;;;;;;;;5036355;28;20163;-78
2022/09/11 12:07:26;;;;;;;5.00;4.50;;;;;;;;;;5036124;28;20220;-78
2022/09/11 12:09:53;;;;;;;5.22;4.70;;;;;;;;;;5035602;28;20175;-78
2022/09/11 12:12:20;;;;;;;4.30;3.90;;;;;;;;;;5036310;28;20599;-78
2022/09/11 12:14:50;;;;;;;5.00;4.50;;;;;;;;;;5035559;28;20202;-78
2022/09/11 12:17:18;;;;;;;5.30;4.50;;;;;;;;;;5019269;28;20198;-77
2022/09/11 12:20:02;;;;;;;5.10;4.60;;;;;;;;;;5035766;28;20181;-78
2022/09/11 12:22:36;;;;;;;4.68;4.28;;;;;;;;;;5035688;28;20213;-78
2022/09/11 12:25:02;;;;;;;5.10;4.40;;;;;;;;;;5035587;28;20643;-78
2022/09/11 12:27:49;;;;;;;5.22;4.82;;;;;;;;;;5019335;28;20198;-78
2022/09/11 12:30:15;;;;;;;6.95;5.20;;;;;;;;;;5035384;28;20203;-78
2022/09/11 12:32:45;;;;;;;4.80;4.32;;;;;;;;;;5036430;28;20174;-78
2022/09/11 12:35:14;;;;;;;4.32;3.92;;;;;;;;;;5036327;28;20656;-78
2022/09/11 12:37:41;;;;;;;4.65;4.10;;;;;;;;;;5035022;28;20198;-78
2022/09/11 12:40:15;;;;;;;4.60;4.20;;;;;;;;;;5018704;28;20178;-78
2022/09/11 12:42:41;;;;;;;4.30;3.90;;;;;;;;;;5036786;28;20157;-78
2022/09/11 12:45:26;;;;;;;4.70;4.30;;;;;;;;;;5034796;28;20177;-78
2022/09/11 12:47:53;;;;;;;3.95;3.65;;;;;;;;;;5036039;28;20222;-78
2022/09/11 12:50:21;;;;;;;4.10;3.70;;;;;;;;;;5035146;28;20190;-78
2022/09/11 12:52:50;;;;;;;4.45;4.05;;;;;;;;;;5035232;28;20200;-77
2022/09/11 12:55:40;;;;;;;4.95;4.55;;;;;;;;;;5036046;28;20194;-78
2022/09/11 12:58:18;;;;;;;7.82;4.53;;;;;;;;;;5034940;28;20273;-78
2022/09/11 13:00:46;;;;;;;5.10;4.60;;;;;;;;;;5034692;28;20175;-78
2022/09/11 13:03:29;;;;;;;5.07;4.57;;;;;;;;;;5034555;28;20178;-78
2022/09/11 13:05:58;;;;;;;4.47;4.07;;;;;;;;;;5034282;28;20617;-78
2022/09/11 13:08:26;;;;;;;4.43;4.03;;;;;;;;;;5036076;28;20177;-78
2022/09/11 13:10:52;;;;;;;4.68;4.00;;;;;;;;;;5034548;28;20178;-78
2022/09/11 13:13:34;;;;;;;4.97;4.47;;;;;;;;;;5026651;28;20289;-78
2022/09/11 13:16:18;;;;;;;4.95;4.32;;;;;;;;;;5034907;28;20210;-78
2022/09/11 13:18:44;;;;;;;6.57;4.20;;;;;;;;;;5034904;28;20174;-75
2022/09/11 13:21:10;;;;;;;6.05;5.45;;;;;;;;;;5018001;28;20206;-78
2022/09/11 13:23:36;;;;;;;5.22;4.72;;;;;;;;;;5034931;28;20174;-78
2022/09/11 13:26:04;;;;;;;6.68;4.65;;;;;;;;;;5018354;28;20277;-78
2022/09/11 13:28:30;;;;;;;5.10;4.60;;;;;;;;;;5034930;28;20236;-78
2022/09/11 13:31:02;;;;;;;4.80;4.32;;;;;;;;;;5052240;28;20570;-78
2022/09/11 13:33:29;;;;;;;4.68;4.10;;;;;;;;;;5054777;28;20256;-78
2022/09/11 13:36:01;;;;;;;4.10;3.80;;;;;;;;;;5055608;28;20200;-78
2022/09/11 13:38:31;;;;;;;4.68;4.28;;;;;;;;;;5038304;28;20177;-78
2022/09/11 13:41:07;;;;;;;5.10;4.60;;;;;;;;;;5054302;28;20196;-78
2022/09/11 13:43:35;;;;;;;3.75;3.35;;;;;;;;;;5054218;28;20211;-78
2022/09/11 13:46:10;;;;;;;4.30;3.10;;;;;;;;;;5054298;28;20185;-78
2022/09/11 13:48:37;;;;;;;3.05;2.45;;;;;;;;;;5054038;28;20272;-78
2022/09/11 13:51:04;;;;;;;3.85;3.08;;;;;;;;;;5038002;28;20185;-78
2022/09/11 13:53:32;;;;;;;2.95;2.70;;;;;;;;;;5053624;28;20174;-78
2022/09/11 13:55:58;;;;;;;2.90;2.60;;;;;;;;;;5053631;28;20224;-78
2022/09/11 13:58:38;;;;;;;2.80;2.60;;;;;;;;;;5053662;28;20166;-78
2022/09/11 14:01:11;;;;;;;3.10;2.80;;;;;;;;;;5054015;28;20162;-78
2022/09/11 14:03:38;;;;;;;2.70;2.50;;;;;;;;;;5053978;28;20624;-78
2022/09/11 14:06:19;;;;;;;2.70;2.47;;;;;;;;;;5053243;28;20244;-78
2022/09/11 14:08:49;;;;;;;2.80;2.60;;;;;;;;;;5053705;28;20181;-78
2022/09/11 14:11:27;;;;;;;2.45;2.25;;;;;;;;;;5054910;28;20181;-78
2022/09/11 14:13:56;;;;;;;2.83;2.47;;;;;;;;;;5037194;28;20182;-78
2022/09/11 14:16:22;;;;;;;2.42;2.20;;;;;;;;;;5053410;28;20558;-78
2022/09/11 14:18:48;;;;;;;2.50;2.30;;;;;;;;;;5053648;28;20170;-78
2022/09/11 14:21:15;;;;;;;2.15;1.90;;;;;;;;;;5053782;28;20181;-78
2022/09/11 14:23:47;;;;;;;1.90;1.80;;;;;;;;;;5036649;28;20260;-78
2022/09/11 14:26:15;;;;;;;2.65;2.10;;;;;;;;;;5053547;28;20204;-78
2022/09/11 14:28:59;;;;;;;2.30;2.10;;;;;;;;;;5036804;28;20648;-78
2022/09/11 14:31:29;;;;;;;2.25;2.05;;;;;;;;;;5053764;28;20162;-78
2022/09/11 14:34:11;;;;;;;2.40;2.20;;;;;;;;;;5054651;28;20161;-78
2022/09/11 14:36:39;;;;;;;2.30;2.10;;;;;;;;;;5053097;28;20682;-78
2022/09/11 14:39:05;;;;;;;2.60;2.30;;;;;;;;;;5054134;28;20170;-78
2022/09/11 14:41:31;;;;;;;2.78;2.50;;;;;;;;;;5053112;28;20256;-79
2022/09/11 14:43:57;;;;;;;2.22;2.03;;;;;;;;;;5053515;28;20166;-79
2022/09/11 14:46:23;;;;;;;2.40;1.95;;;;;;;;;;5037177;28;20216;-78
2022/09/11 14:48:50;;;;;;;2.60;2.35;;;;;;;;;;5053281;28;20614;-78
2022/09/11 14:51:16;;;;;;;2.95;2.30;;;;;;;;;;5053388;28;20169;-78
2022/09/11 14:53:42;;;;;;;2.47;2.28;;;;;;;;;;5036821;28;20246;-78
2022/09/11 14:56:08;;;;;;;2.40;2.20;;;;;;;;;;5053015;28;20264;-78
2022/09/11 14:58:34;;;;;;;2.40;2.20;;;;;;;;;;5037423;28;20162;-78
2022/09/11 15:01:01;;;;;;;2.15;1.95;;;;;;;;;;5054149;28;20180;-78